<?xml version="1.0" encoding="UTF-8" standalone="no" ?>
<gpx xmlns="http://www.topografix.com/GPX/1/1" xmlns:xsi="http://www.w3.org/2001/XMLSchema-instance" xsi:schemaLocation="http://www.topografix.com/GPX/1/1 http://www.topografix.com/GPX/1/1/gpx.xsd" version="1.1" creator="VisuGPX - https://www.visugpx.com">
  <metadata>
    <name>grand_colombier-TET</name>
    <desc><![CDATA[name=2022 09 24 Begin of the TET section 20 Track
cmt=
desc=
time=2022-09-24T09:46:08Z]]></desc>
  </metadata>
  <wpt lat="45.85842" lon="5.77164">
    <ele>661.1</ele>
    <name><![CDATA[à vérif]]></name>
    <desc><![CDATA[name=à vérif]]></desc>
  </wpt>
  <wpt lat="45.86391" lon="5.82138">
    <ele>238.1</ele>
    <name><![CDATA[ok]]></name>
    <desc><![CDATA[name=ok]]></desc>
  </wpt>
  <wpt lat="46.00337" lon="5.81125">
    <ele>271.3</ele>
    <name><![CDATA[ok]]></name>
    <desc><![CDATA[name=ok]]></desc>
  </wpt>
  <wpt lat="45.98447" lon="5.79127">
    <ele>573.6</ele>
    <name><![CDATA[ok]]></name>
    <desc><![CDATA[name=ok]]></desc>
  </wpt>
  <wpt lat="45.97026" lon="5.76896">
    <ele>1090.4</ele>
    <name><![CDATA[ok]]></name>
    <desc><![CDATA[name=ok]]></desc>
  </wpt>
  <wpt lat="46.09692" lon="5.77954">
    <ele>576.7</ele>
    <name><![CDATA[ok]]></name>
    <desc><![CDATA[name=ok]]></desc>
  </wpt>
  <wpt lat="46.17247" lon="5.75381">
    <ele>531.9</ele>
    <name><![CDATA[ok]]></name>
    <desc><![CDATA[name=ok]]></desc>
  </wpt>
  <wpt lat="45.89804" lon="5.73838">
    <ele>910.1</ele>
    <name><![CDATA[ok]]></name>
    <desc><![CDATA[name=ok]]></desc>
  </wpt>
  <wpt lat="45.92864" lon="5.73929">
    <ele>830.7</ele>
  </wpt>
  <wpt lat="45.95229" lon="5.74925">
    <ele>1311.1</ele>
  </wpt>
  <wpt lat="45.86162" lon="5.79089">
    <ele>594.4</ele>
    <name><![CDATA[par la route]]></name>
    <desc><![CDATA[name=par la route]]></desc>
  </wpt>
  <wpt lat="45.92514" lon="5.79762">
    <ele>682.4</ele>
    <name><![CDATA[Vérif si autorisé]]></name>
    <desc><![CDATA[name=Vérif si autorisé]]></desc>
  </wpt>
  <wpt lat="45.89315" lon="5.7063">
    <ele>484.5</ele>
    <name><![CDATA[ok]]></name>
    <desc><![CDATA[name=ok]]></desc>
  </wpt>
  <wpt lat="45.87199" lon="5.7075">
    <ele>246.1</ele>
    <name><![CDATA[ok]]></name>
    <desc><![CDATA[name=ok]]></desc>
  </wpt>
  <wpt lat="45.8999" lon="5.83082">
    <ele>240</ele>
    <name><![CDATA[ok]]></name>
    <desc><![CDATA[name=ok]]></desc>
  </wpt>
  <trk>
    <name><![CDATA[Seyssel - Chanaz]]></name>
    <desc><![CDATA[name=Seyssel - Chanaz
cmt=
desc=
time=2021-07-27T13:23:15Z]]></desc>
    <extensions>
      <line xmlns="http://www.topografix.com/GPX/gpx_style/0/2">
        <color>FFFF00</color>
        <width>4</width>
      </line>
    </extensions>
    <trkseg>
      <trkpt lat="45.95826" lon="5.8337">
        <ele>255.423</ele>
        <time>2021-07-27T13:23:15Z</time>
      </trkpt>
      <trkpt lat="45.95825" lon="5.83397">
        <ele>254.683</ele>
        <time>2021-07-27T13:24:51Z</time>
      </trkpt>
      <trkpt lat="45.9577" lon="5.83403">
        <ele>254.611</ele>
        <time>2021-07-27T13:25:01Z</time>
      </trkpt>
      <trkpt lat="45.95765" lon="5.83378">
        <ele>254.608</ele>
        <time>2021-07-27T13:25:07Z</time>
      </trkpt>
      <trkpt lat="45.95754" lon="5.83379">
        <ele>254.619</ele>
        <time>2021-07-27T13:25:11Z</time>
      </trkpt>
      <trkpt lat="45.95738" lon="5.83422">
        <ele>254.621</ele>
        <time>2021-07-27T13:25:22Z</time>
      </trkpt>
      <trkpt lat="45.95418" lon="5.83719">
        <ele>247.945</ele>
        <time>2021-07-27T13:26:01Z</time>
      </trkpt>
      <trkpt lat="45.95394" lon="5.83715">
        <ele>251.923</ele>
        <time>2021-07-27T13:26:04Z</time>
      </trkpt>
      <trkpt lat="45.95352" lon="5.83643">
        <ele>253.478</ele>
        <time>2021-07-27T13:26:09Z</time>
      </trkpt>
      <trkpt lat="45.9514" lon="5.83129">
        <ele>263.254</ele>
        <time>2021-07-27T13:26:30Z</time>
      </trkpt>
      <trkpt lat="45.95144" lon="5.8298">
        <ele>269.133</ele>
        <time>2021-07-27T13:26:35Z</time>
      </trkpt>
      <trkpt lat="45.95129" lon="5.82898">
        <ele>269.864</ele>
        <time>2021-07-27T13:26:38Z</time>
      </trkpt>
      <trkpt lat="45.95082" lon="5.82833">
        <ele>269.892</ele>
        <time>2021-07-27T13:26:41Z</time>
      </trkpt>
      <trkpt lat="45.94936" lon="5.82694">
        <ele>268.173</ele>
        <time>2021-07-27T13:26:49Z</time>
      </trkpt>
      <trkpt lat="45.94871" lon="5.82553">
        <ele>278.02</ele>
        <time>2021-07-27T13:26:54Z</time>
      </trkpt>
      <trkpt lat="45.94825" lon="5.82398">
        <ele>290.008</ele>
        <time>2021-07-27T13:26:59Z</time>
      </trkpt>
      <trkpt lat="45.94715" lon="5.82201">
        <ele>295.046</ele>
        <time>2021-07-27T13:27:07Z</time>
      </trkpt>
      <trkpt lat="45.9466" lon="5.8184">
        <ele>314.718</ele>
        <time>2021-07-27T13:27:18Z</time>
      </trkpt>
      <trkpt lat="45.94568" lon="5.81579">
        <ele>326.492</ele>
        <time>2021-07-27T13:27:27Z</time>
      </trkpt>
      <trkpt lat="45.9453" lon="5.81519">
        <ele>319.44</ele>
        <time>2021-07-27T13:27:30Z</time>
      </trkpt>
      <trkpt lat="45.94482" lon="5.81481">
        <ele>326.685</ele>
        <time>2021-07-27T13:27:33Z</time>
      </trkpt>
      <trkpt lat="45.93968" lon="5.81253">
        <ele>337.531</ele>
        <time>2021-07-27T13:28:16Z</time>
      </trkpt>
      <trkpt lat="45.93735" lon="5.81191">
        <ele>312.78</ele>
        <time>2021-07-27T13:28:33Z</time>
      </trkpt>
      <trkpt lat="45.93644" lon="5.812">
        <ele>317.431</ele>
        <time>2021-07-27T13:28:40Z</time>
      </trkpt>
      <trkpt lat="45.93392" lon="5.81169">
        <ele>330.281</ele>
        <time>2021-07-27T13:28:53Z</time>
      </trkpt>
      <trkpt lat="45.93233" lon="5.81084">
        <ele>316.961</ele>
        <time>2021-07-27T13:29:06Z</time>
      </trkpt>
      <trkpt lat="45.93246" lon="5.81008">
        <ele>322.917</ele>
        <time>2021-07-27T13:29:14Z</time>
      </trkpt>
      <trkpt lat="45.93272" lon="5.80988">
        <ele>317.308</ele>
        <time>2021-07-27T13:29:18Z</time>
      </trkpt>
      <trkpt lat="45.9334" lon="5.80991">
        <ele>318.695</ele>
        <time>2021-07-27T13:29:25Z</time>
      </trkpt>
      <trkpt lat="45.93445" lon="5.80949">
        <ele>332.057</ele>
        <time>2021-07-27T13:29:34Z</time>
      </trkpt>
      <trkpt lat="45.93572" lon="5.80939">
        <ele>350.151</ele>
        <time>2021-07-27T13:29:46Z</time>
      </trkpt>
      <trkpt lat="45.9376" lon="5.80889">
        <ele>359.019</ele>
        <time>2021-07-27T13:30:12Z</time>
      </trkpt>
      <trkpt lat="45.93726" lon="5.80888">
        <ele>376.084</ele>
        <time>2021-07-27T13:30:24Z</time>
      </trkpt>
      <trkpt lat="45.9363" lon="5.8081">
        <ele>376.09</ele>
        <time>2021-07-27T13:30:40Z</time>
      </trkpt>
      <trkpt lat="45.93542" lon="5.80767">
        <ele>391.349</ele>
        <time>2021-07-27T13:30:53Z</time>
      </trkpt>
      <trkpt lat="45.93428" lon="5.80659">
        <ele>404.29</ele>
        <time>2021-07-27T13:31:14Z</time>
      </trkpt>
      <trkpt lat="45.93309" lon="5.80655">
        <ele>421.824</ele>
        <time>2021-07-27T13:31:31Z</time>
      </trkpt>
      <trkpt lat="45.93261" lon="5.80635">
        <ele>435.704</ele>
        <time>2021-07-27T13:31:38Z</time>
      </trkpt>
      <trkpt lat="45.93181" lon="5.80532">
        <ele>438.414</ele>
        <time>2021-07-27T13:31:51Z</time>
      </trkpt>
      <trkpt lat="45.93155" lon="5.80415">
        <ele>452.908</ele>
        <time>2021-07-27T13:32:05Z</time>
      </trkpt>
      <trkpt lat="45.93136" lon="5.80406">
        <ele>460.919</ele>
        <time>2021-07-27T13:32:08Z</time>
      </trkpt>
      <trkpt lat="45.93076" lon="5.80429">
        <ele>462.311</ele>
        <time>2021-07-27T13:32:17Z</time>
      </trkpt>
      <trkpt lat="45.92905" lon="5.80264">
        <ele>507.955</ele>
        <time>2021-07-27T13:32:46Z</time>
      </trkpt>
      <trkpt lat="45.92914" lon="5.80253">
        <ele>501.893</ele>
        <time>2021-07-27T13:32:50Z</time>
      </trkpt>
      <trkpt lat="45.93012" lon="5.80283">
        <ele>513.038</ele>
        <time>2021-07-27T13:33:03Z</time>
      </trkpt>
      <trkpt lat="45.93076" lon="5.80257">
        <ele>508.344</ele>
        <time>2021-07-27T13:33:13Z</time>
      </trkpt>
      <trkpt lat="45.9308" lon="5.80242">
        <ele>512.053</ele>
        <time>2021-07-27T13:33:17Z</time>
      </trkpt>
      <trkpt lat="45.93" lon="5.80217">
        <ele>528.654</ele>
        <time>2021-07-27T13:33:29Z</time>
      </trkpt>
      <trkpt lat="45.92958" lon="5.80133">
        <ele>539.595</ele>
        <time>2021-07-27T13:33:40Z</time>
      </trkpt>
      <trkpt lat="45.92658" lon="5.79992">
        <ele>584.149</ele>
        <time>2021-07-27T13:34:18Z</time>
      </trkpt>
      <trkpt lat="45.92593" lon="5.79991">
        <ele>584.723</ele>
        <time>2021-07-27T13:34:27Z</time>
      </trkpt>
      <trkpt lat="45.92436" lon="5.79846">
        <ele>614.808</ele>
        <time>2021-07-27T13:34:52Z</time>
      </trkpt>
      <trkpt lat="45.92416" lon="5.79775">
        <ele>618.326</ele>
        <time>2021-07-27T13:35:00Z</time>
      </trkpt>
      <trkpt lat="45.92374" lon="5.79713">
        <ele>641.738</ele>
        <time>2021-07-27T13:35:11Z</time>
      </trkpt>
      <trkpt lat="45.92497" lon="5.79762">
        <ele>656.012</ele>
        <time>2021-07-27T13:35:35Z</time>
      </trkpt>
      <trkpt lat="45.92557" lon="5.79752">
        <ele>664.28</ele>
        <time>2021-07-27T13:35:47Z</time>
      </trkpt>
      <trkpt lat="45.92492" lon="5.79692">
        <ele>675.695</ele>
        <time>2021-07-27T13:36:00Z</time>
      </trkpt>
      <trkpt lat="45.92483" lon="5.79655">
        <ele>682.191</ele>
        <time>2021-07-27T13:36:08Z</time>
      </trkpt>
      <trkpt lat="45.92591" lon="5.79675">
        <ele>701.55</ele>
        <time>2021-07-27T13:36:23Z</time>
      </trkpt>
      <trkpt lat="45.92636" lon="5.79666">
        <ele>708.041</ele>
        <time>2021-07-27T13:36:30Z</time>
      </trkpt>
      <trkpt lat="45.92681" lon="5.79703">
        <ele>706.428</ele>
        <time>2021-07-27T13:36:37Z</time>
      </trkpt>
      <trkpt lat="45.92714" lon="5.79702">
        <ele>718.489</ele>
        <time>2021-07-27T13:36:42Z</time>
      </trkpt>
      <trkpt lat="45.9274" lon="5.79784">
        <ele>715.317</ele>
        <time>2021-07-27T13:36:54Z</time>
      </trkpt>
      <trkpt lat="45.92737" lon="5.79688">
        <ele>730.508</ele>
        <time>2021-07-27T13:37:07Z</time>
      </trkpt>
      <trkpt lat="45.92693" lon="5.79576">
        <ele>748.289</ele>
        <time>2021-07-27T13:37:20Z</time>
      </trkpt>
      <trkpt lat="45.92799" lon="5.79681">
        <ele>747.321</ele>
        <time>2021-07-27T13:37:43Z</time>
      </trkpt>
      <trkpt lat="45.92804" lon="5.79665">
        <ele>748.195</ele>
        <time>2021-07-27T13:37:45Z</time>
      </trkpt>
      <trkpt lat="45.92738" lon="5.79539">
        <ele>765.483</ele>
        <time>2021-07-27T13:38:00Z</time>
      </trkpt>
      <trkpt lat="45.92716" lon="5.7942">
        <ele>784.788</ele>
        <time>2021-07-27T13:38:12Z</time>
      </trkpt>
      <trkpt lat="45.92667" lon="5.7945">
        <ele>788.914</ele>
        <time>2021-07-27T13:38:22Z</time>
      </trkpt>
      <trkpt lat="45.92644" lon="5.79442">
        <ele>794.053</ele>
        <time>2021-07-27T13:38:26Z</time>
      </trkpt>
      <trkpt lat="45.92629" lon="5.79416">
        <ele>804.924</ele>
        <time>2021-07-27T13:38:30Z</time>
      </trkpt>
      <trkpt lat="45.92626" lon="5.7936">
        <ele>795.112</ele>
        <time>2021-07-27T13:38:38Z</time>
      </trkpt>
      <trkpt lat="45.92533" lon="5.79325">
        <ele>796.932</ele>
        <time>2021-07-27T13:38:50Z</time>
      </trkpt>
      <trkpt lat="45.92519" lon="5.79288">
        <ele>801.805</ele>
        <time>2021-07-27T13:38:57Z</time>
      </trkpt>
      <trkpt lat="45.92574" lon="5.79286">
        <ele>811.508</ele>
        <time>2021-07-27T13:39:05Z</time>
      </trkpt>
      <trkpt lat="45.92636" lon="5.79252">
        <ele>810.718</ele>
        <time>2021-07-27T13:39:13Z</time>
      </trkpt>
      <trkpt lat="45.92761" lon="5.79247">
        <ele>830.29</ele>
        <time>2021-07-27T13:39:29Z</time>
      </trkpt>
      <trkpt lat="45.9285" lon="5.79176">
        <ele>840.354</ele>
        <time>2021-07-27T13:39:43Z</time>
      </trkpt>
      <trkpt lat="45.92863" lon="5.79207">
        <ele>839.892</ele>
        <time>2021-07-27T13:39:49Z</time>
      </trkpt>
      <trkpt lat="45.92854" lon="5.79275">
        <ele>839.667</ele>
        <time>2021-07-27T13:39:56Z</time>
      </trkpt>
      <trkpt lat="45.92867" lon="5.79283">
        <ele>844.333</ele>
        <time>2021-07-27T13:40:00Z</time>
      </trkpt>
      <trkpt lat="45.92903" lon="5.79239">
        <ele>857.622</ele>
        <time>2021-07-27T13:40:10Z</time>
      </trkpt>
      <trkpt lat="45.92975" lon="5.7922">
        <ele>859.273</ele>
        <time>2021-07-27T13:40:19Z</time>
      </trkpt>
      <trkpt lat="45.93028" lon="5.79186">
        <ele>867.927</ele>
        <time>2021-07-27T13:40:27Z</time>
      </trkpt>
      <trkpt lat="45.93097" lon="5.79184">
        <ele>881.868</ele>
        <time>2021-07-27T13:40:40Z</time>
      </trkpt>
      <trkpt lat="45.931" lon="5.79167">
        <ele>874.914</ele>
        <time>2021-07-27T13:42:56Z</time>
      </trkpt>
      <trkpt lat="45.93037" lon="5.79064">
        <ele>875.308</ele>
        <time>2021-07-27T13:43:11Z</time>
      </trkpt>
      <trkpt lat="45.93002" lon="5.78874">
        <ele>894.839</ele>
        <time>2021-07-27T13:43:29Z</time>
      </trkpt>
      <trkpt lat="45.92982" lon="5.78842">
        <ele>896.551</ele>
        <time>2021-07-27T13:43:34Z</time>
      </trkpt>
      <trkpt lat="45.9266" lon="5.78815">
        <ele>911.575</ele>
        <time>2021-07-27T13:44:07Z</time>
      </trkpt>
      <trkpt lat="45.92478" lon="5.78766">
        <ele>935.813</ele>
        <time>2021-07-27T13:44:29Z</time>
      </trkpt>
      <trkpt lat="45.9244" lon="5.78737">
        <ele>934.928</ele>
        <time>2021-07-27T13:44:36Z</time>
      </trkpt>
      <trkpt lat="45.9241" lon="5.78736">
        <ele>940.374</ele>
        <time>2021-07-27T13:44:42Z</time>
      </trkpt>
      <trkpt lat="45.92396" lon="5.78677">
        <ele>957.073</ele>
        <time>2021-07-27T13:44:51Z</time>
      </trkpt>
      <trkpt lat="45.92372" lon="5.78671">
        <ele>950.194</ele>
        <time>2021-07-27T13:44:57Z</time>
      </trkpt>
      <trkpt lat="45.92431" lon="5.78631">
        <ele>961.553</ele>
        <time>2021-07-27T13:45:05Z</time>
      </trkpt>
      <trkpt lat="45.92467" lon="5.78519">
        <ele>970.704</ele>
        <time>2021-07-27T13:45:17Z</time>
      </trkpt>
      <trkpt lat="45.92492" lon="5.78489">
        <ele>969.014</ele>
        <time>2021-07-27T13:45:22Z</time>
      </trkpt>
      <trkpt lat="45.92632" lon="5.78423">
        <ele>984.008</ele>
        <time>2021-07-27T13:45:40Z</time>
      </trkpt>
      <trkpt lat="45.93086" lon="5.78395">
        <ele>1022.032</ele>
        <time>2021-07-27T13:46:34Z</time>
      </trkpt>
      <trkpt lat="45.93232" lon="5.7837">
        <ele>1046.254</ele>
        <time>2021-07-27T13:46:52Z</time>
      </trkpt>
      <trkpt lat="45.93356" lon="5.78308">
        <ele>1061.048</ele>
        <time>2021-07-27T13:47:08Z</time>
      </trkpt>
      <trkpt lat="45.93459" lon="5.78299">
        <ele>1059.846</ele>
        <time>2021-07-27T13:47:21Z</time>
      </trkpt>
      <trkpt lat="45.93736" lon="5.78196">
        <ele>1093.591</ele>
        <time>2021-07-27T13:47:57Z</time>
      </trkpt>
      <trkpt lat="45.93863" lon="5.78109">
        <ele>1116.897</ele>
        <time>2021-07-27T13:48:19Z</time>
      </trkpt>
      <trkpt lat="45.93736" lon="5.78101">
        <ele>1136.176</ele>
        <time>2021-07-27T13:48:41Z</time>
      </trkpt>
      <trkpt lat="45.93629" lon="5.78063">
        <ele>1138.427</ele>
        <time>2021-07-27T13:48:56Z</time>
      </trkpt>
      <trkpt lat="45.93477" lon="5.78055">
        <ele>1159.096</ele>
        <time>2021-07-27T13:49:17Z</time>
      </trkpt>
      <trkpt lat="45.93421" lon="5.78033">
        <ele>1170.231</ele>
        <time>2021-07-27T13:49:26Z</time>
      </trkpt>
      <trkpt lat="45.9333" lon="5.78043">
        <ele>1183.924</ele>
        <time>2021-07-27T13:49:40Z</time>
      </trkpt>
      <trkpt lat="45.93248" lon="5.78015">
        <ele>1186.208</ele>
        <time>2021-07-27T13:49:53Z</time>
      </trkpt>
      <trkpt lat="45.93224" lon="5.77972">
        <ele>1185.476</ele>
        <time>2021-07-27T13:50:04Z</time>
      </trkpt>
      <trkpt lat="45.93128" lon="5.77974">
        <ele>1195.228</ele>
        <time>2021-07-27T13:50:21Z</time>
      </trkpt>
      <trkpt lat="45.93069" lon="5.77888">
        <ele>1197.052</ele>
        <time>2021-07-27T13:50:40Z</time>
      </trkpt>
      <trkpt lat="45.93066" lon="5.77845">
        <ele>1203.88</ele>
        <time>2021-07-27T13:50:47Z</time>
      </trkpt>
      <trkpt lat="45.93038" lon="5.778">
        <ele>1219.215</ele>
        <time>2021-07-27T13:50:58Z</time>
      </trkpt>
      <trkpt lat="45.93021" lon="5.77725">
        <ele>1220.811</ele>
        <time>2021-07-27T13:51:08Z</time>
      </trkpt>
      <trkpt lat="45.93048" lon="5.77562">
        <ele>1226.55</ele>
        <time>2021-07-27T13:51:25Z</time>
      </trkpt>
      <trkpt lat="45.93107" lon="5.77519">
        <ele>1226.931</ele>
        <time>2021-07-27T13:51:36Z</time>
      </trkpt>
      <trkpt lat="45.93215" lon="5.77398">
        <ele>1240.044</ele>
        <time>2021-07-27T13:51:55Z</time>
      </trkpt>
      <trkpt lat="45.93275" lon="5.774">
        <ele>1249.205</ele>
        <time>2021-07-27T13:52:04Z</time>
      </trkpt>
      <trkpt lat="45.93329" lon="5.77349">
        <ele>1249.315</ele>
        <time>2021-07-27T13:52:13Z</time>
      </trkpt>
      <trkpt lat="45.93363" lon="5.77345">
        <ele>1245.708</ele>
        <time>2021-07-27T13:52:20Z</time>
      </trkpt>
      <trkpt lat="45.93382" lon="5.77281">
        <ele>1258.561</ele>
        <time>2021-07-27T13:52:28Z</time>
      </trkpt>
      <trkpt lat="45.93442" lon="5.77226">
        <ele>1271.543</ele>
        <time>2021-07-27T13:52:37Z</time>
      </trkpt>
      <trkpt lat="45.93699" lon="5.77239">
        <ele>1271.347</ele>
        <time>2021-07-27T13:53:17Z</time>
      </trkpt>
      <trkpt lat="45.9391" lon="5.77321">
        <ele>1265.245</ele>
        <time>2021-07-27T13:56:41Z</time>
      </trkpt>
      <trkpt lat="45.93947" lon="5.7735">
        <ele>1269.25</ele>
        <time>2021-07-27T13:56:47Z</time>
      </trkpt>
      <trkpt lat="45.94036" lon="5.77369">
        <ele>1265.236</ele>
        <time>2021-07-27T13:57:03Z</time>
      </trkpt>
      <trkpt lat="45.94292" lon="5.77344">
        <ele>1268.825</ele>
        <time>2021-07-27T13:57:47Z</time>
      </trkpt>
      <trkpt lat="45.94365" lon="5.77364">
        <ele>1259.026</ele>
        <time>2021-07-27T13:58:00Z</time>
      </trkpt>
      <trkpt lat="45.94392" lon="5.77353">
        <ele>1252.615</ele>
        <time>2021-07-27T13:58:04Z</time>
      </trkpt>
      <trkpt lat="45.94415" lon="5.77306">
        <ele>1257.165</ele>
        <time>2021-07-27T13:58:11Z</time>
      </trkpt>
      <trkpt lat="45.94439" lon="5.77301">
        <ele>1249.111</ele>
        <time>2021-07-27T13:58:15Z</time>
      </trkpt>
      <trkpt lat="45.94517" lon="5.77418">
        <ele>1252.508</ele>
        <time>2021-07-27T13:58:30Z</time>
      </trkpt>
      <trkpt lat="45.94606" lon="5.77408">
        <ele>1240.858</ele>
        <time>2021-07-27T13:58:43Z</time>
      </trkpt>
      <trkpt lat="45.94754" lon="5.77469">
        <ele>1239.79</ele>
        <time>2021-07-27T13:59:02Z</time>
      </trkpt>
      <trkpt lat="45.94818" lon="5.77465">
        <ele>1225.934</ele>
        <time>2021-07-27T13:59:15Z</time>
      </trkpt>
      <trkpt lat="45.94852" lon="5.77507">
        <ele>1218.522</ele>
        <time>2021-07-27T13:59:24Z</time>
      </trkpt>
      <trkpt lat="45.94976" lon="5.77443">
        <ele>1234.727</ele>
        <time>2021-07-27T13:59:42Z</time>
      </trkpt>
      <trkpt lat="45.95059" lon="5.7748">
        <ele>1224.753</ele>
        <time>2021-07-27T13:59:54Z</time>
      </trkpt>
      <trkpt lat="45.95107" lon="5.77457">
        <ele>1233.362</ele>
        <time>2021-07-27T14:00:01Z</time>
      </trkpt>
      <trkpt lat="45.95186" lon="5.77456">
        <ele>1241.263</ele>
        <time>2021-07-27T14:00:16Z</time>
      </trkpt>
      <trkpt lat="45.95182" lon="5.77401">
        <ele>1231.522</ele>
        <time>2021-07-27T14:00:25Z</time>
      </trkpt>
      <trkpt lat="45.9515" lon="5.77343">
        <ele>1236.662</ele>
        <time>2021-07-27T14:00:33Z</time>
      </trkpt>
      <trkpt lat="45.95159" lon="5.77221">
        <ele>1243.908</ele>
        <time>2021-07-27T14:01:56Z</time>
      </trkpt>
      <trkpt lat="45.95307" lon="5.77177">
        <ele>1253.408</ele>
        <time>2021-07-27T14:02:12Z</time>
      </trkpt>
      <trkpt lat="45.95313" lon="5.77151">
        <ele>1255.619</ele>
        <time>2021-07-27T14:02:16Z</time>
      </trkpt>
      <trkpt lat="45.95249" lon="5.77113">
        <ele>1266.181</ele>
        <time>2021-07-27T14:02:23Z</time>
      </trkpt>
      <trkpt lat="45.952" lon="5.77025">
        <ele>1264.025</ele>
        <time>2021-07-27T14:02:29Z</time>
      </trkpt>
      <trkpt lat="45.9511" lon="5.76923">
        <ele>1273.543</ele>
        <time>2021-07-27T14:02:38Z</time>
      </trkpt>
      <trkpt lat="45.95064" lon="5.76896">
        <ele>1275.848</ele>
        <time>2021-07-27T14:02:43Z</time>
      </trkpt>
      <trkpt lat="45.94996" lon="5.7689">
        <ele>1279.894</ele>
        <time>2021-07-27T14:02:49Z</time>
      </trkpt>
      <trkpt lat="45.95" lon="5.76854">
        <ele>1283.083</ele>
        <time>2021-07-27T14:02:53Z</time>
      </trkpt>
      <trkpt lat="45.95132" lon="5.76767">
        <ele>1302.934</ele>
        <time>2021-07-27T14:03:07Z</time>
      </trkpt>
      <trkpt lat="45.95152" lon="5.76735">
        <ele>1299.863</ele>
        <time>2021-07-27T14:03:11Z</time>
      </trkpt>
      <trkpt lat="45.95221" lon="5.76514">
        <ele>1303.244</ele>
        <time>2021-07-27T14:03:23Z</time>
      </trkpt>
      <trkpt lat="45.95224" lon="5.76392">
        <ele>1304.018</ele>
        <time>2021-07-27T14:03:28Z</time>
      </trkpt>
      <trkpt lat="45.95211" lon="5.76322">
        <ele>1306.408</ele>
        <time>2021-07-27T14:03:31Z</time>
      </trkpt>
      <trkpt lat="45.95168" lon="5.76224">
        <ele>1305.053</ele>
        <time>2021-07-27T14:03:36Z</time>
      </trkpt>
      <trkpt lat="45.95076" lon="5.76141">
        <ele>1314.355</ele>
        <time>2021-07-27T14:03:44Z</time>
      </trkpt>
      <trkpt lat="45.94799" lon="5.76134">
        <ele>1314.559</ele>
        <time>2021-07-27T14:10:31Z</time>
      </trkpt>
      <trkpt lat="45.94775" lon="5.7611">
        <ele>1317.517</ele>
        <time>2021-07-27T14:10:35Z</time>
      </trkpt>
      <trkpt lat="45.9478" lon="5.7609">
        <ele>1315.152</ele>
        <time>2021-07-27T14:10:37Z</time>
      </trkpt>
      <trkpt lat="45.94931" lon="5.75984">
        <ele>1308.528</ele>
        <time>2021-07-27T14:10:50Z</time>
      </trkpt>
      <trkpt lat="45.95293" lon="5.75841">
        <ele>1255.537</ele>
        <time>2021-07-27T14:11:14Z</time>
      </trkpt>
      <trkpt lat="45.95355" lon="5.758">
        <ele>1262.658</ele>
        <time>2021-07-27T14:11:22Z</time>
      </trkpt>
      <trkpt lat="45.9535" lon="5.7578">
        <ele>1257.291</ele>
        <time>2021-07-27T14:11:25Z</time>
      </trkpt>
      <trkpt lat="45.95125" lon="5.75698">
        <ele>1226.081</ele>
        <time>2021-07-27T14:11:48Z</time>
      </trkpt>
      <trkpt lat="45.9511" lon="5.75665">
        <ele>1232.319</ele>
        <time>2021-07-27T14:11:52Z</time>
      </trkpt>
      <trkpt lat="45.9512" lon="5.75628">
        <ele>1231.708</ele>
        <time>2021-07-27T14:12:19Z</time>
      </trkpt>
      <trkpt lat="45.95084" lon="5.75644">
        <ele>1231.936</ele>
        <time>2021-07-27T14:13:54Z</time>
      </trkpt>
      <trkpt lat="45.94963" lon="5.75563">
        <ele>1231.188</ele>
        <time>2021-07-27T14:14:20Z</time>
      </trkpt>
      <trkpt lat="45.94957" lon="5.75573">
        <ele>1236.132</ele>
        <time>2021-07-27T14:14:24Z</time>
      </trkpt>
      <trkpt lat="45.95069" lon="5.75631">
        <ele>1233.01</ele>
        <time>2021-07-27T14:14:50Z</time>
      </trkpt>
      <trkpt lat="45.9511" lon="5.75629">
        <ele>1229.495</ele>
        <time>2021-07-27T14:14:59Z</time>
      </trkpt>
      <trkpt lat="45.95261" lon="5.75457">
        <ele>1229.641</ele>
        <time>2021-07-27T14:15:20Z</time>
      </trkpt>
      <trkpt lat="45.95252" lon="5.75418">
        <ele>1241.62</ele>
        <time>2021-07-27T14:15:26Z</time>
      </trkpt>
      <trkpt lat="45.95126" lon="5.7536">
        <ele>1251.821</ele>
        <time>2021-07-27T14:15:39Z</time>
      </trkpt>
      <trkpt lat="45.95095" lon="5.75321">
        <ele>1256.614</ele>
        <time>2021-07-27T14:15:43Z</time>
      </trkpt>
      <trkpt lat="45.95167" lon="5.75108">
        <ele>1263.854</ele>
        <time>2021-07-27T14:15:55Z</time>
      </trkpt>
      <trkpt lat="45.95258" lon="5.74977">
        <ele>1275.309</ele>
        <time>2021-07-27T14:16:06Z</time>
      </trkpt>
      <trkpt lat="45.95258" lon="5.74916">
        <ele>1272.608</ele>
        <time>2021-07-27T14:16:10Z</time>
      </trkpt>
      <trkpt lat="45.9523" lon="5.74809">
        <ele>1285.398</ele>
        <time>2021-07-27T14:16:18Z</time>
      </trkpt>
      <trkpt lat="45.95268" lon="5.74687">
        <ele>1283.04</ele>
        <time>2021-07-27T14:16:30Z</time>
      </trkpt>
      <trkpt lat="45.95251" lon="5.74661">
        <ele>1291.014</ele>
        <time>2021-07-27T14:16:33Z</time>
      </trkpt>
      <trkpt lat="45.94967" lon="5.74571">
        <ele>1266.182</ele>
        <time>2021-07-27T14:16:53Z</time>
      </trkpt>
      <trkpt lat="45.9479" lon="5.74482">
        <ele>1248.947</ele>
        <time>2021-07-27T14:17:06Z</time>
      </trkpt>
      <trkpt lat="45.94688" lon="5.7446">
        <ele>1238.983</ele>
        <time>2021-07-27T14:17:15Z</time>
      </trkpt>
      <trkpt lat="45.94625" lon="5.74471">
        <ele>1234.032</ele>
        <time>2021-07-27T14:17:20Z</time>
      </trkpt>
      <trkpt lat="45.94546" lon="5.74455">
        <ele>1225.563</ele>
        <time>2021-07-27T14:17:26Z</time>
      </trkpt>
      <trkpt lat="45.94458" lon="5.74479">
        <ele>1219.725</ele>
        <time>2021-07-27T14:17:33Z</time>
      </trkpt>
      <trkpt lat="45.94409" lon="5.74514">
        <ele>1214.226</ele>
        <time>2021-07-27T14:17:39Z</time>
      </trkpt>
      <trkpt lat="45.94391" lon="5.745">
        <ele>1212.108</ele>
        <time>2021-07-27T14:19:51Z</time>
      </trkpt>
      <trkpt lat="45.9453" lon="5.74413">
        <ele>1214.108</ele>
        <time>2021-07-27T14:20:05Z</time>
      </trkpt>
      <trkpt lat="45.94895" lon="5.74235">
        <ele>1174.469</ele>
        <time>2021-07-27T14:20:32Z</time>
      </trkpt>
      <trkpt lat="45.95098" lon="5.74173">
        <ele>1159.081</ele>
        <time>2021-07-27T14:20:48Z</time>
      </trkpt>
      <trkpt lat="45.9515" lon="5.74171">
        <ele>1159.055</ele>
        <time>2021-07-27T14:20:53Z</time>
      </trkpt>
      <trkpt lat="45.95241" lon="5.74118">
        <ele>1146.733</ele>
        <time>2021-07-27T14:21:00Z</time>
      </trkpt>
      <trkpt lat="45.95364" lon="5.74085">
        <ele>1128.248</ele>
        <time>2021-07-27T14:21:11Z</time>
      </trkpt>
      <trkpt lat="45.95421" lon="5.74113">
        <ele>1126.584</ele>
        <time>2021-07-27T14:21:16Z</time>
      </trkpt>
      <trkpt lat="45.95621" lon="5.74157">
        <ele>1106.943</ele>
        <time>2021-07-27T14:21:32Z</time>
      </trkpt>
      <trkpt lat="45.95784" lon="5.74112">
        <ele>1097.044</ele>
        <time>2021-07-27T14:21:45Z</time>
      </trkpt>
      <trkpt lat="45.9587" lon="5.74043">
        <ele>1085.249</ele>
        <time>2021-07-27T14:21:56Z</time>
      </trkpt>
      <trkpt lat="45.95874" lon="5.74013">
        <ele>1078.802</ele>
        <time>2021-07-27T14:21:59Z</time>
      </trkpt>
      <trkpt lat="45.9585" lon="5.73995">
        <ele>1077.222</ele>
        <time>2021-07-27T14:22:03Z</time>
      </trkpt>
      <trkpt lat="45.95766" lon="5.7403">
        <ele>1066.708</ele>
        <time>2021-07-27T14:22:15Z</time>
      </trkpt>
      <trkpt lat="45.95674" lon="5.74023">
        <ele>1064.911</ele>
        <time>2021-07-27T14:22:25Z</time>
      </trkpt>
      <trkpt lat="45.95611" lon="5.73965">
        <ele>1061.023</ele>
        <time>2021-07-27T14:22:32Z</time>
      </trkpt>
      <trkpt lat="45.95576" lon="5.73907">
        <ele>1048.757</ele>
        <time>2021-07-27T14:22:38Z</time>
      </trkpt>
      <trkpt lat="45.95546" lon="5.73896">
        <ele>1043.045</ele>
        <time>2021-07-27T14:22:42Z</time>
      </trkpt>
      <trkpt lat="45.95432" lon="5.73785">
        <ele>1025.87</ele>
        <time>2021-07-27T14:22:56Z</time>
      </trkpt>
      <trkpt lat="45.95363" lon="5.73744">
        <ele>1012.386</ele>
        <time>2021-07-27T14:23:08Z</time>
      </trkpt>
      <trkpt lat="45.95358" lon="5.73756">
        <ele>1003.535</ele>
        <time>2021-07-27T14:24:22Z</time>
      </trkpt>
      <trkpt lat="45.95131" lon="5.73741">
        <ele>974.026</ele>
        <time>2021-07-27T14:24:53Z</time>
      </trkpt>
      <trkpt lat="45.95075" lon="5.73721">
        <ele>980.486</ele>
        <time>2021-07-27T14:24:59Z</time>
      </trkpt>
      <trkpt lat="45.95016" lon="5.73738">
        <ele>964.86</ele>
        <time>2021-07-27T14:25:06Z</time>
      </trkpt>
      <trkpt lat="45.94975" lon="5.73709">
        <ele>952.826</ele>
        <time>2021-07-27T14:25:11Z</time>
      </trkpt>
      <trkpt lat="45.94902" lon="5.73696">
        <ele>940.508</ele>
        <time>2021-07-27T14:25:18Z</time>
      </trkpt>
      <trkpt lat="45.94771" lon="5.73706">
        <ele>920.695</ele>
        <time>2021-07-27T14:25:31Z</time>
      </trkpt>
      <trkpt lat="45.94713" lon="5.7367">
        <ele>907.827</ele>
        <time>2021-07-27T14:25:38Z</time>
      </trkpt>
      <trkpt lat="45.94572" lon="5.73714">
        <ele>883.621</ele>
        <time>2021-07-27T14:25:52Z</time>
      </trkpt>
      <trkpt lat="45.94512" lon="5.73692">
        <ele>886.579</ele>
        <time>2021-07-27T14:25:59Z</time>
      </trkpt>
      <trkpt lat="45.94441" lon="5.73705">
        <ele>888.084</ele>
        <time>2021-07-27T14:26:07Z</time>
      </trkpt>
      <trkpt lat="45.94408" lon="5.73692">
        <ele>883.47</ele>
        <time>2021-07-27T14:26:31Z</time>
      </trkpt>
      <trkpt lat="45.94223" lon="5.73828">
        <ele>881.019</ele>
        <time>2021-07-27T14:26:58Z</time>
      </trkpt>
      <trkpt lat="45.94061" lon="5.73884">
        <ele>885.01</ele>
        <time>2021-07-27T14:27:17Z</time>
      </trkpt>
      <trkpt lat="45.93954" lon="5.73891">
        <ele>901.458</ele>
        <time>2021-07-27T14:27:30Z</time>
      </trkpt>
      <trkpt lat="45.93894" lon="5.73944">
        <ele>907.552</ele>
        <time>2021-07-27T14:27:40Z</time>
      </trkpt>
      <trkpt lat="45.93846" lon="5.73921">
        <ele>894.317</ele>
        <time>2021-07-27T14:27:47Z</time>
      </trkpt>
      <trkpt lat="45.93721" lon="5.73912">
        <ele>894.808</ele>
        <time>2021-07-27T14:28:01Z</time>
      </trkpt>
      <trkpt lat="45.93674" lon="5.7394">
        <ele>892.122</ele>
        <time>2021-07-27T14:28:08Z</time>
      </trkpt>
      <trkpt lat="45.93642" lon="5.73925">
        <ele>886.484</ele>
        <time>2021-07-27T14:28:13Z</time>
      </trkpt>
      <trkpt lat="45.93215" lon="5.73949">
        <ele>844.758</ele>
        <time>2021-07-27T14:29:08Z</time>
      </trkpt>
      <trkpt lat="45.93113" lon="5.73924">
        <ele>821.596</ele>
        <time>2021-07-27T14:29:26Z</time>
      </trkpt>
      <trkpt lat="45.92976" lon="5.73962">
        <ele>829.641</ele>
        <time>2021-07-27T14:33:07Z</time>
      </trkpt>
      <trkpt lat="45.92758" lon="5.73985">
        <ele>837.037</ele>
        <time>2021-07-27T14:33:26Z</time>
      </trkpt>
      <trkpt lat="45.92688" lon="5.74012">
        <ele>844.156</ele>
        <time>2021-07-27T14:33:32Z</time>
      </trkpt>
      <trkpt lat="45.92557" lon="5.74113">
        <ele>857.427</ele>
        <time>2021-07-27T14:33:42Z</time>
      </trkpt>
      <trkpt lat="45.92432" lon="5.74147">
        <ele>852.462</ele>
        <time>2021-07-27T14:33:51Z</time>
      </trkpt>
      <trkpt lat="45.92303" lon="5.74249">
        <ele>874.883</ele>
        <time>2021-07-27T14:34:03Z</time>
      </trkpt>
      <trkpt lat="45.92176" lon="5.74312">
        <ele>888.311</ele>
        <time>2021-07-27T14:34:13Z</time>
      </trkpt>
      <trkpt lat="45.91985" lon="5.74502">
        <ele>929.508</ele>
        <time>2021-07-27T14:34:30Z</time>
      </trkpt>
      <trkpt lat="45.91962" lon="5.74559">
        <ele>941.573</ele>
        <time>2021-07-27T14:34:35Z</time>
      </trkpt>
      <trkpt lat="45.91961" lon="5.74647">
        <ele>932.055</ele>
        <time>2021-07-27T14:34:44Z</time>
      </trkpt>
      <trkpt lat="45.91976" lon="5.74681">
        <ele>939.329</ele>
        <time>2021-07-27T14:34:49Z</time>
      </trkpt>
      <trkpt lat="45.92084" lon="5.74767">
        <ele>933.797</ele>
        <time>2021-07-27T14:35:01Z</time>
      </trkpt>
      <trkpt lat="45.92284" lon="5.74789">
        <ele>945.452</ele>
        <time>2021-07-27T14:35:14Z</time>
      </trkpt>
      <trkpt lat="45.92371" lon="5.74834">
        <ele>946.878</ele>
        <time>2021-07-27T14:35:20Z</time>
      </trkpt>
      <trkpt lat="45.92438" lon="5.749">
        <ele>952.897</ele>
        <time>2021-07-27T14:35:26Z</time>
      </trkpt>
      <trkpt lat="45.92487" lon="5.74979">
        <ele>943.128</ele>
        <time>2021-07-27T14:35:33Z</time>
      </trkpt>
      <trkpt lat="45.92567" lon="5.75005">
        <ele>948.147</ele>
        <time>2021-07-27T14:35:39Z</time>
      </trkpt>
      <trkpt lat="45.92618" lon="5.75044">
        <ele>957.429</ele>
        <time>2021-07-27T14:35:43Z</time>
      </trkpt>
      <trkpt lat="45.92758" lon="5.75204">
        <ele>950.721</ele>
        <time>2021-07-27T14:35:56Z</time>
      </trkpt>
      <trkpt lat="45.92841" lon="5.75362">
        <ele>950.708</ele>
        <time>2021-07-27T14:36:08Z</time>
      </trkpt>
      <trkpt lat="45.92865" lon="5.75522">
        <ele>946.861</ele>
        <time>2021-07-27T14:36:18Z</time>
      </trkpt>
      <trkpt lat="45.92837" lon="5.75583">
        <ele>951.623</ele>
        <time>2021-07-27T14:36:26Z</time>
      </trkpt>
      <trkpt lat="45.92825" lon="5.75582">
        <ele>953.987</ele>
        <time>2021-07-27T14:36:28Z</time>
      </trkpt>
      <trkpt lat="45.92762" lon="5.75489">
        <ele>960.095</ele>
        <time>2021-07-27T14:36:37Z</time>
      </trkpt>
      <trkpt lat="45.92644" lon="5.75411">
        <ele>961.25</ele>
        <time>2021-07-27T14:36:48Z</time>
      </trkpt>
      <trkpt lat="45.92599" lon="5.75402">
        <ele>967.946</ele>
        <time>2021-07-27T14:36:58Z</time>
      </trkpt>
      <trkpt lat="45.92518" lon="5.75331">
        <ele>970.765</ele>
        <time>2021-07-27T14:37:33Z</time>
      </trkpt>
      <trkpt lat="45.9241" lon="5.75297">
        <ele>969.466</ele>
        <time>2021-07-27T14:37:41Z</time>
      </trkpt>
      <trkpt lat="45.9223" lon="5.75166">
        <ele>972.816</ele>
        <time>2021-07-27T14:37:55Z</time>
      </trkpt>
      <trkpt lat="45.92112" lon="5.75175">
        <ele>984.776</ele>
        <time>2021-07-27T14:38:04Z</time>
      </trkpt>
      <trkpt lat="45.92017" lon="5.75254">
        <ele>977.513</ele>
        <time>2021-07-27T14:38:12Z</time>
      </trkpt>
      <trkpt lat="45.91941" lon="5.75275">
        <ele>982.408</ele>
        <time>2021-07-27T14:38:18Z</time>
      </trkpt>
      <trkpt lat="45.91789" lon="5.75163">
        <ele>987.548</ele>
        <time>2021-07-27T14:38:31Z</time>
      </trkpt>
      <trkpt lat="45.91723" lon="5.75159">
        <ele>988.42</ele>
        <time>2021-07-27T14:38:36Z</time>
      </trkpt>
      <trkpt lat="45.91629" lon="5.75081">
        <ele>991.584</ele>
        <time>2021-07-27T14:38:45Z</time>
      </trkpt>
      <trkpt lat="45.91459" lon="5.75203">
        <ele>1003.352</ele>
        <time>2021-07-27T14:39:03Z</time>
      </trkpt>
      <trkpt lat="45.91354" lon="5.7509">
        <ele>1009.617</ele>
        <time>2021-07-27T14:39:13Z</time>
      </trkpt>
      <trkpt lat="45.91316" lon="5.75003">
        <ele>1018.823</ele>
        <time>2021-07-27T14:39:18Z</time>
      </trkpt>
      <trkpt lat="45.91243" lon="5.74965">
        <ele>1031.752</ele>
        <time>2021-07-27T14:39:25Z</time>
      </trkpt>
      <trkpt lat="45.9094" lon="5.75095">
        <ele>1073.913</ele>
        <time>2021-07-27T14:39:51Z</time>
      </trkpt>
      <trkpt lat="45.90869" lon="5.74952">
        <ele>1092.178</ele>
        <time>2021-07-27T14:40:01Z</time>
      </trkpt>
      <trkpt lat="45.90726" lon="5.74841">
        <ele>1112.533</ele>
        <time>2021-07-27T14:40:14Z</time>
      </trkpt>
      <trkpt lat="45.90624" lon="5.74696">
        <ele>1131.826</ele>
        <time>2021-07-27T14:40:24Z</time>
      </trkpt>
      <trkpt lat="45.90575" lon="5.74588">
        <ele>1146.608</ele>
        <time>2021-07-27T14:40:32Z</time>
      </trkpt>
      <trkpt lat="45.90567" lon="5.74527">
        <ele>1150.554</ele>
        <time>2021-07-27T14:40:41Z</time>
      </trkpt>
      <trkpt lat="45.90541" lon="5.74543">
        <ele>1154.976</ele>
        <time>2021-07-27T14:40:45Z</time>
      </trkpt>
      <trkpt lat="45.90488" lon="5.74679">
        <ele>1166.85</ele>
        <time>2021-07-27T14:40:55Z</time>
      </trkpt>
      <trkpt lat="45.90296" lon="5.74712">
        <ele>1173.798</ele>
        <time>2021-07-27T14:41:07Z</time>
      </trkpt>
      <trkpt lat="45.90181" lon="5.74707">
        <ele>1186.763</ele>
        <time>2021-07-27T14:41:14Z</time>
      </trkpt>
      <trkpt lat="45.90114" lon="5.74726">
        <ele>1186.919</ele>
        <time>2021-07-27T14:41:19Z</time>
      </trkpt>
      <trkpt lat="45.89989" lon="5.74854">
        <ele>1196.848</ele>
        <time>2021-07-27T14:41:31Z</time>
      </trkpt>
      <trkpt lat="45.89856" lon="5.74936">
        <ele>1204.429</ele>
        <time>2021-07-27T14:41:40Z</time>
      </trkpt>
      <trkpt lat="45.89718" lon="5.75189">
        <ele>1210.551</ele>
        <time>2021-07-27T14:41:56Z</time>
      </trkpt>
      <trkpt lat="45.90055" lon="5.75461">
        <ele>1224.301</ele>
        <time>2021-07-27T14:42:23Z</time>
      </trkpt>
      <trkpt lat="45.90066" lon="5.75527">
        <ele>1222.211</ele>
        <time>2021-07-27T14:42:28Z</time>
      </trkpt>
      <trkpt lat="45.90029" lon="5.75583">
        <ele>1231.208</ele>
        <time>2021-07-27T14:42:33Z</time>
      </trkpt>
      <trkpt lat="45.89875" lon="5.75686">
        <ele>1247.882</ele>
        <time>2021-07-27T14:42:48Z</time>
      </trkpt>
      <trkpt lat="45.89803" lon="5.75697">
        <ele>1271.464</ele>
        <time>2021-07-27T14:46:30Z</time>
      </trkpt>
      <trkpt lat="45.89687" lon="5.75757">
        <ele>1277.248</ele>
        <time>2021-07-27T14:46:47Z</time>
      </trkpt>
      <trkpt lat="45.89599" lon="5.75779">
        <ele>1275.966</ele>
        <time>2021-07-27T14:47:04Z</time>
      </trkpt>
      <trkpt lat="45.89313" lon="5.75763">
        <ele>1247.131</ele>
        <time>2021-07-27T14:48:04Z</time>
      </trkpt>
      <trkpt lat="45.89055" lon="5.75647">
        <ele>1195.237</ele>
        <time>2021-07-27T14:48:55Z</time>
      </trkpt>
      <trkpt lat="45.88968" lon="5.75551">
        <ele>1186.476</ele>
        <time>2021-07-27T14:49:20Z</time>
      </trkpt>
      <trkpt lat="45.88938" lon="5.75488">
        <ele>1174.877</ele>
        <time>2021-07-27T14:49:32Z</time>
      </trkpt>
      <trkpt lat="45.88946" lon="5.75469">
        <ele>1170.072</ele>
        <time>2021-07-27T14:49:55Z</time>
      </trkpt>
      <trkpt lat="45.8903" lon="5.75504">
        <ele>1145.713</ele>
        <time>2021-07-27T14:50:26Z</time>
      </trkpt>
      <trkpt lat="45.89167" lon="5.75484">
        <ele>1132.014</ele>
        <time>2021-07-27T14:50:53Z</time>
      </trkpt>
      <trkpt lat="45.89342" lon="5.7536">
        <ele>1088.908</ele>
        <time>2021-07-27T14:51:31Z</time>
      </trkpt>
      <trkpt lat="45.89338" lon="5.75333">
        <ele>1078.874</ele>
        <time>2021-07-27T14:51:36Z</time>
      </trkpt>
      <trkpt lat="45.89278" lon="5.75333">
        <ele>1060.876</ele>
        <time>2021-07-27T14:51:50Z</time>
      </trkpt>
      <trkpt lat="45.89173" lon="5.75295">
        <ele>1055.12</ele>
        <time>2021-07-27T14:52:15Z</time>
      </trkpt>
      <trkpt lat="45.89192" lon="5.75251">
        <ele>1054.598</ele>
        <time>2021-07-27T14:54:16Z</time>
      </trkpt>
      <trkpt lat="45.89238" lon="5.75235">
        <ele>1026.583</ele>
        <time>2021-07-27T14:54:28Z</time>
      </trkpt>
      <trkpt lat="45.89249" lon="5.75213">
        <ele>1011.969</ele>
        <time>2021-07-27T14:54:36Z</time>
      </trkpt>
      <trkpt lat="45.89243" lon="5.75111">
        <ele>1006.188</ele>
        <time>2021-07-27T14:54:58Z</time>
      </trkpt>
      <trkpt lat="45.89201" lon="5.75045">
        <ele>989.819</ele>
        <time>2021-07-27T14:55:15Z</time>
      </trkpt>
      <trkpt lat="45.89225" lon="5.74984">
        <ele>986.834</ele>
        <time>2021-07-27T14:55:27Z</time>
      </trkpt>
      <trkpt lat="45.89194" lon="5.74837">
        <ele>985.255</ele>
        <time>2021-07-27T14:55:46Z</time>
      </trkpt>
      <trkpt lat="45.89212" lon="5.74683">
        <ele>978.21</ele>
        <time>2021-07-27T14:55:59Z</time>
      </trkpt>
      <trkpt lat="45.89279" lon="5.74449">
        <ele>967.408</ele>
        <time>2021-07-27T14:56:16Z</time>
      </trkpt>
      <trkpt lat="45.89312" lon="5.74388">
        <ele>954.39</ele>
        <time>2021-07-27T14:56:22Z</time>
      </trkpt>
      <trkpt lat="45.89358" lon="5.74355">
        <ele>945.052</ele>
        <time>2021-07-27T14:56:28Z</time>
      </trkpt>
      <trkpt lat="45.8941" lon="5.74354">
        <ele>931.166</ele>
        <time>2021-07-27T14:56:36Z</time>
      </trkpt>
      <trkpt lat="45.89476" lon="5.74287">
        <ele>926.884</ele>
        <time>2021-07-27T14:56:46Z</time>
      </trkpt>
      <trkpt lat="45.89554" lon="5.74235">
        <ele>936.059</ele>
        <time>2021-07-27T14:56:57Z</time>
      </trkpt>
      <trkpt lat="45.89599" lon="5.74164">
        <ele>929.525</ele>
        <time>2021-07-27T14:57:05Z</time>
      </trkpt>
      <trkpt lat="45.89661" lon="5.74001">
        <ele>905.734</ele>
        <time>2021-07-27T14:57:20Z</time>
      </trkpt>
      <trkpt lat="45.89779" lon="5.73868">
        <ele>909.615</ele>
        <time>2021-07-27T14:57:37Z</time>
      </trkpt>
      <trkpt lat="45.89848" lon="5.73762">
        <ele>897.011</ele>
        <time>2021-07-27T14:57:48Z</time>
      </trkpt>
      <trkpt lat="45.9" lon="5.73607">
        <ele>885.621</ele>
        <time>2021-07-27T14:58:10Z</time>
      </trkpt>
      <trkpt lat="45.90157" lon="5.73547">
        <ele>874.603</ele>
        <time>2021-07-27T14:58:30Z</time>
      </trkpt>
      <trkpt lat="45.90241" lon="5.7359">
        <ele>861.908</ele>
        <time>2021-07-27T14:58:44Z</time>
      </trkpt>
      <trkpt lat="45.90315" lon="5.73508">
        <ele>852.098</ele>
        <time>2021-07-27T14:58:55Z</time>
      </trkpt>
      <trkpt lat="45.90342" lon="5.73457">
        <ele>854.36</ele>
        <time>2021-07-27T14:59:01Z</time>
      </trkpt>
      <trkpt lat="45.90444" lon="5.73412">
        <ele>838.444</ele>
        <time>2021-07-27T14:59:13Z</time>
      </trkpt>
      <trkpt lat="45.90505" lon="5.73411">
        <ele>832.972</ele>
        <time>2021-07-27T14:59:21Z</time>
      </trkpt>
      <trkpt lat="45.9054" lon="5.73366">
        <ele>840.547</ele>
        <time>2021-07-27T14:59:27Z</time>
      </trkpt>
      <trkpt lat="45.90673" lon="5.73314">
        <ele>824.013</ele>
        <time>2021-07-27T14:59:44Z</time>
      </trkpt>
      <trkpt lat="45.90708" lon="5.73332">
        <ele>831.622</ele>
        <time>2021-07-27T14:59:52Z</time>
      </trkpt>
      <trkpt lat="45.90871" lon="5.73291">
        <ele>809.443</ele>
        <time>2021-07-27T15:00:14Z</time>
      </trkpt>
      <trkpt lat="45.90964" lon="5.73331">
        <ele>793.452</ele>
        <time>2021-07-27T15:00:27Z</time>
      </trkpt>
      <trkpt lat="45.91054" lon="5.73322">
        <ele>787.553</ele>
        <time>2021-07-27T15:00:39Z</time>
      </trkpt>
      <trkpt lat="45.91188" lon="5.73352">
        <ele>782.108</ele>
        <time>2021-07-27T15:03:46Z</time>
      </trkpt>
      <trkpt lat="45.9125" lon="5.73404">
        <ele>775.308</ele>
        <time>2021-07-27T15:03:52Z</time>
      </trkpt>
      <trkpt lat="45.91341" lon="5.73414">
        <ele>766.852</ele>
        <time>2021-07-27T15:04:01Z</time>
      </trkpt>
      <trkpt lat="45.9134" lon="5.73366">
        <ele>765.614</ele>
        <time>2021-07-27T15:04:05Z</time>
      </trkpt>
      <trkpt lat="45.91275" lon="5.73193">
        <ele>754.268</ele>
        <time>2021-07-27T15:04:14Z</time>
      </trkpt>
      <trkpt lat="45.91204" lon="5.73081">
        <ele>751.056</ele>
        <time>2021-07-27T15:04:21Z</time>
      </trkpt>
      <trkpt lat="45.91097" lon="5.72976">
        <ele>727.791</ele>
        <time>2021-07-27T15:04:31Z</time>
      </trkpt>
      <trkpt lat="45.91105" lon="5.72941">
        <ele>723.377</ele>
        <time>2021-07-27T15:04:34Z</time>
      </trkpt>
      <trkpt lat="45.9119" lon="5.72955">
        <ele>711.746</ele>
        <time>2021-07-27T15:04:42Z</time>
      </trkpt>
      <trkpt lat="45.91328" lon="5.72909">
        <ele>693.657</ele>
        <time>2021-07-27T15:04:53Z</time>
      </trkpt>
      <trkpt lat="45.91347" lon="5.72876">
        <ele>685.682</ele>
        <time>2021-07-27T15:04:56Z</time>
      </trkpt>
      <trkpt lat="45.91349" lon="5.72835">
        <ele>677.643</ele>
        <time>2021-07-27T15:04:59Z</time>
      </trkpt>
      <trkpt lat="45.91326" lon="5.72785">
        <ele>668.417</ele>
        <time>2021-07-27T15:05:03Z</time>
      </trkpt>
      <trkpt lat="45.91262" lon="5.72713">
        <ele>668.308</ele>
        <time>2021-07-27T15:05:10Z</time>
      </trkpt>
      <trkpt lat="45.91083" lon="5.72582">
        <ele>633.775</ele>
        <time>2021-07-27T15:05:24Z</time>
      </trkpt>
      <trkpt lat="45.91027" lon="5.72522">
        <ele>628.517</ele>
        <time>2021-07-27T15:05:40Z</time>
      </trkpt>
      <trkpt lat="45.90881" lon="5.72508">
        <ele>632.331</ele>
        <time>2021-07-27T15:05:54Z</time>
      </trkpt>
      <trkpt lat="45.908" lon="5.72476">
        <ele>618.089</ele>
        <time>2021-07-27T15:06:02Z</time>
      </trkpt>
      <trkpt lat="45.90788" lon="5.72458">
        <ele>611.084</ele>
        <time>2021-07-27T15:06:07Z</time>
      </trkpt>
      <trkpt lat="45.90599" lon="5.72455">
        <ele>611.39</ele>
        <time>2021-07-27T15:06:21Z</time>
      </trkpt>
      <trkpt lat="45.90451" lon="5.72419">
        <ele>602.079</ele>
        <time>2021-07-27T15:06:30Z</time>
      </trkpt>
      <trkpt lat="45.90324" lon="5.72334">
        <ele>600.61</ele>
        <time>2021-07-27T15:06:39Z</time>
      </trkpt>
      <trkpt lat="45.90154" lon="5.72372">
        <ele>580.985</ele>
        <time>2021-07-27T15:06:50Z</time>
      </trkpt>
      <trkpt lat="45.89992" lon="5.72368">
        <ele>568.689</ele>
        <time>2021-07-27T15:07:02Z</time>
      </trkpt>
      <trkpt lat="45.89992" lon="5.72328">
        <ele>567.217</ele>
        <time>2021-07-27T15:07:05Z</time>
      </trkpt>
      <trkpt lat="45.90099" lon="5.72122">
        <ele>556.108</ele>
        <time>2021-07-27T15:07:18Z</time>
      </trkpt>
      <trkpt lat="45.90092" lon="5.72062">
        <ele>548.855</ele>
        <time>2021-07-27T15:07:22Z</time>
      </trkpt>
      <trkpt lat="45.90074" lon="5.72041">
        <ele>544.887</ele>
        <time>2021-07-27T15:07:24Z</time>
      </trkpt>
      <trkpt lat="45.89986" lon="5.72012">
        <ele>541.891</ele>
        <time>2021-07-27T15:07:31Z</time>
      </trkpt>
      <trkpt lat="45.89951" lon="5.71909">
        <ele>538.539</ele>
        <time>2021-07-27T15:07:39Z</time>
      </trkpt>
      <trkpt lat="45.89783" lon="5.71702">
        <ele>531.254</ele>
        <time>2021-07-27T15:08:43Z</time>
      </trkpt>
      <trkpt lat="45.89672" lon="5.71463">
        <ele>530.18</ele>
        <time>2021-07-27T15:08:56Z</time>
      </trkpt>
      <trkpt lat="45.89554" lon="5.71136">
        <ele>504.319</ele>
        <time>2021-07-27T15:09:10Z</time>
      </trkpt>
      <trkpt lat="45.89269" lon="5.70581">
        <ele>479.99</ele>
        <time>2021-07-27T15:09:35Z</time>
      </trkpt>
      <trkpt lat="45.8918" lon="5.70481">
        <ele>473.452</ele>
        <time>2021-07-27T15:09:42Z</time>
      </trkpt>
      <trkpt lat="45.88942" lon="5.70064">
        <ele>455.153</ele>
        <time>2021-07-27T15:10:03Z</time>
      </trkpt>
      <trkpt lat="45.88927" lon="5.69955">
        <ele>451.708</ele>
        <time>2021-07-27T15:10:09Z</time>
      </trkpt>
      <trkpt lat="45.8894" lon="5.69789">
        <ele>447.908</ele>
        <time>2021-07-27T15:10:17Z</time>
      </trkpt>
      <trkpt lat="45.89023" lon="5.69701">
        <ele>440.742</ele>
        <time>2021-07-27T15:10:25Z</time>
      </trkpt>
      <trkpt lat="45.89057" lon="5.69622">
        <ele>434.984</ele>
        <time>2021-07-27T15:10:30Z</time>
      </trkpt>
      <trkpt lat="45.89057" lon="5.69582">
        <ele>433.878</ele>
        <time>2021-07-27T15:10:33Z</time>
      </trkpt>
      <trkpt lat="45.88987" lon="5.69531">
        <ele>431.156</ele>
        <time>2021-07-27T15:10:40Z</time>
      </trkpt>
      <trkpt lat="45.88957" lon="5.69408">
        <ele>425.721</ele>
        <time>2021-07-27T15:10:47Z</time>
      </trkpt>
      <trkpt lat="45.88917" lon="5.69384">
        <ele>420.567</ele>
        <time>2021-07-27T15:10:50Z</time>
      </trkpt>
      <trkpt lat="45.88753" lon="5.69372">
        <ele>416.616</ele>
        <time>2021-07-27T15:10:59Z</time>
      </trkpt>
      <trkpt lat="45.88594" lon="5.69305">
        <ele>401.487</ele>
        <time>2021-07-27T15:11:09Z</time>
      </trkpt>
      <trkpt lat="45.88517" lon="5.69305">
        <ele>397.433</ele>
        <time>2021-07-27T15:11:14Z</time>
      </trkpt>
      <trkpt lat="45.88436" lon="5.69254">
        <ele>382.623</ele>
        <time>2021-07-27T15:11:21Z</time>
      </trkpt>
      <trkpt lat="45.88206" lon="5.69323">
        <ele>367.115</ele>
        <time>2021-07-27T15:11:37Z</time>
      </trkpt>
      <trkpt lat="45.88188" lon="5.6931">
        <ele>363.408</ele>
        <time>2021-07-27T15:11:39Z</time>
      </trkpt>
      <trkpt lat="45.8818" lon="5.69278">
        <ele>357.86</ele>
        <time>2021-07-27T15:11:41Z</time>
      </trkpt>
      <trkpt lat="45.88197" lon="5.69108">
        <ele>357.782</ele>
        <time>2021-07-27T15:11:51Z</time>
      </trkpt>
      <trkpt lat="45.88188" lon="5.68993">
        <ele>344.816</ele>
        <time>2021-07-27T15:12:01Z</time>
      </trkpt>
      <trkpt lat="45.88178" lon="5.68986">
        <ele>336.854</ele>
        <time>2021-07-27T15:12:08Z</time>
      </trkpt>
      <trkpt lat="45.88137" lon="5.69018">
        <ele>345.679</ele>
        <time>2021-07-27T15:12:13Z</time>
      </trkpt>
      <trkpt lat="45.88094" lon="5.69138">
        <ele>348.285</ele>
        <time>2021-07-27T15:12:21Z</time>
      </trkpt>
      <trkpt lat="45.88002" lon="5.69191">
        <ele>348.244</ele>
        <time>2021-07-27T15:12:29Z</time>
      </trkpt>
      <trkpt lat="45.87917" lon="5.6932">
        <ele>348.215</ele>
        <time>2021-07-27T15:12:37Z</time>
      </trkpt>
      <trkpt lat="45.8781" lon="5.69426">
        <ele>348.265</ele>
        <time>2021-07-27T15:12:45Z</time>
      </trkpt>
      <trkpt lat="45.87773" lon="5.69436">
        <ele>348.268</ele>
        <time>2021-07-27T15:12:48Z</time>
      </trkpt>
      <trkpt lat="45.87745" lon="5.69405">
        <ele>348.214</ele>
        <time>2021-07-27T15:12:51Z</time>
      </trkpt>
      <trkpt lat="45.87741" lon="5.6937">
        <ele>348.208</ele>
        <time>2021-07-27T15:12:53Z</time>
      </trkpt>
      <trkpt lat="45.87783" lon="5.69189">
        <ele>348.253</ele>
        <time>2021-07-27T15:13:02Z</time>
      </trkpt>
      <trkpt lat="45.87814" lon="5.68955">
        <ele>340.255</ele>
        <time>2021-07-27T15:13:13Z</time>
      </trkpt>
      <trkpt lat="45.87791" lon="5.68907">
        <ele>328.249</ele>
        <time>2021-07-27T15:13:17Z</time>
      </trkpt>
      <trkpt lat="45.87758" lon="5.68905">
        <ele>320.257</ele>
        <time>2021-07-27T15:13:20Z</time>
      </trkpt>
      <trkpt lat="45.87735" lon="5.68974">
        <ele>312.232</ele>
        <time>2021-07-27T15:13:24Z</time>
      </trkpt>
      <trkpt lat="45.87733" lon="5.69109">
        <ele>296.248</ele>
        <time>2021-07-27T15:13:30Z</time>
      </trkpt>
      <trkpt lat="45.87659" lon="5.69267">
        <ele>277.187</ele>
        <time>2021-07-27T15:13:39Z</time>
      </trkpt>
      <trkpt lat="45.87631" lon="5.69272">
        <ele>273.788</ele>
        <time>2021-07-27T15:13:42Z</time>
      </trkpt>
      <trkpt lat="45.87436" lon="5.69205">
        <ele>244.346</ele>
        <time>2021-07-27T15:14:02Z</time>
      </trkpt>
      <trkpt lat="45.87383" lon="5.69365">
        <ele>240.388</ele>
        <time>2021-07-27T15:14:16Z</time>
      </trkpt>
      <trkpt lat="45.87338" lon="5.69422">
        <ele>244.016</ele>
        <time>2021-07-27T15:14:24Z</time>
      </trkpt>
      <trkpt lat="45.87311" lon="5.69715">
        <ele>240.508</ele>
        <time>2021-07-27T15:14:41Z</time>
      </trkpt>
      <trkpt lat="45.87341" lon="5.70029">
        <ele>239.131</ele>
        <time>2021-07-27T15:14:58Z</time>
      </trkpt>
      <trkpt lat="45.87286" lon="5.70315">
        <ele>245.783</ele>
        <time>2021-07-27T15:15:09Z</time>
      </trkpt>
      <trkpt lat="45.87305" lon="5.70521">
        <ele>253.427</ele>
        <time>2021-07-27T15:15:18Z</time>
      </trkpt>
      <trkpt lat="45.87104" lon="5.70974">
        <ele>249.265</ele>
        <time>2021-07-27T15:15:38Z</time>
      </trkpt>
      <trkpt lat="45.87078" lon="5.71108">
        <ele>244.64</ele>
        <time>2021-07-27T15:15:43Z</time>
      </trkpt>
      <trkpt lat="45.8707" lon="5.71399">
        <ele>231.196</ele>
        <time>2021-07-27T15:15:53Z</time>
      </trkpt>
      <trkpt lat="45.86973" lon="5.71713">
        <ele>222.035</ele>
        <time>2021-07-27T15:16:04Z</time>
      </trkpt>
      <trkpt lat="45.8688" lon="5.71885">
        <ele>220.776</ele>
        <time>2021-07-27T15:16:11Z</time>
      </trkpt>
      <trkpt lat="45.86425" lon="5.7236">
        <ele>230.972</ele>
        <time>2021-07-27T15:16:34Z</time>
      </trkpt>
      <trkpt lat="45.86363" lon="5.72454">
        <ele>222.013</ele>
        <time>2021-07-27T15:16:38Z</time>
      </trkpt>
      <trkpt lat="45.86333" lon="5.726">
        <ele>219.014</ele>
        <time>2021-07-27T15:16:43Z</time>
      </trkpt>
      <trkpt lat="45.86356" lon="5.7303">
        <ele>233.008</ele>
        <time>2021-07-27T15:16:57Z</time>
      </trkpt>
      <trkpt lat="45.8635" lon="5.7315">
        <ele>231.084</ele>
        <time>2021-07-27T15:17:01Z</time>
      </trkpt>
      <trkpt lat="45.86209" lon="5.73538">
        <ele>236.646</ele>
        <time>2021-07-27T15:17:15Z</time>
      </trkpt>
      <trkpt lat="45.86106" lon="5.73899">
        <ele>223.22</ele>
        <time>2021-07-27T15:17:27Z</time>
      </trkpt>
      <trkpt lat="45.86018" lon="5.74075">
        <ele>223.218</ele>
        <time>2021-07-27T15:17:34Z</time>
      </trkpt>
      <trkpt lat="45.85962" lon="5.74128">
        <ele>231.153</ele>
        <time>2021-07-27T15:17:37Z</time>
      </trkpt>
      <trkpt lat="45.85822" lon="5.74213">
        <ele>232.869</ele>
        <time>2021-07-27T15:17:44Z</time>
      </trkpt>
      <trkpt lat="45.85758" lon="5.74299">
        <ele>237.858</ele>
        <time>2021-07-27T15:17:48Z</time>
      </trkpt>
      <trkpt lat="45.8569" lon="5.74448">
        <ele>237.939</ele>
        <time>2021-07-27T15:17:55Z</time>
      </trkpt>
      <trkpt lat="45.85631" lon="5.74734">
        <ele>246.477</ele>
        <time>2021-07-27T15:18:07Z</time>
      </trkpt>
      <trkpt lat="45.85562" lon="5.74823">
        <ele>246.461</ele>
        <time>2021-07-27T15:18:13Z</time>
      </trkpt>
      <trkpt lat="45.85486" lon="5.74974">
        <ele>244.527</ele>
        <time>2021-07-27T15:18:24Z</time>
      </trkpt>
      <trkpt lat="45.85378" lon="5.75127">
        <ele>250.208</ele>
        <time>2021-07-27T15:18:39Z</time>
      </trkpt>
      <trkpt lat="45.85314" lon="5.75249">
        <ele>241.884</ele>
        <time>2021-07-27T15:18:46Z</time>
      </trkpt>
      <trkpt lat="45.85255" lon="5.755">
        <ele>227.726</ele>
        <time>2021-07-27T15:18:58Z</time>
      </trkpt>
      <trkpt lat="45.85195" lon="5.75932">
        <ele>222.24</ele>
        <time>2021-07-27T15:19:16Z</time>
      </trkpt>
      <trkpt lat="45.85048" lon="5.76225">
        <ele>225.288</ele>
        <time>2021-07-27T15:19:30Z</time>
      </trkpt>
      <trkpt lat="45.84783" lon="5.76832">
        <ele>227.553</ele>
        <time>2021-07-27T15:20:04Z</time>
      </trkpt>
      <trkpt lat="45.84763" lon="5.76851">
        <ele>226.239</ele>
        <time>2021-07-27T15:20:08Z</time>
      </trkpt>
      <trkpt lat="45.84761" lon="5.76875">
        <ele>222.078</ele>
        <time>2021-07-27T15:20:11Z</time>
      </trkpt>
      <trkpt lat="45.84786" lon="5.76902">
        <ele>218.059</ele>
        <time>2021-07-27T15:20:15Z</time>
      </trkpt>
      <trkpt lat="45.84803" lon="5.76957">
        <ele>220.798</ele>
        <time>2021-07-27T15:20:19Z</time>
      </trkpt>
      <trkpt lat="45.84879" lon="5.7747">
        <ele>238.815</ele>
        <time>2021-07-27T15:20:43Z</time>
      </trkpt>
      <trkpt lat="45.8488" lon="5.77542">
        <ele>244.626</ele>
        <time>2021-07-27T15:20:47Z</time>
      </trkpt>
      <trkpt lat="45.84853" lon="5.77688">
        <ele>231.008</ele>
        <time>2021-07-27T15:21:04Z</time>
      </trkpt>
      <trkpt lat="45.84865" lon="5.77679">
        <ele>233.866</ele>
        <time>2021-07-27T15:21:08Z</time>
      </trkpt>
      <trkpt lat="45.84884" lon="5.77491">
        <ele>239.168</ele>
        <time>2021-07-27T15:21:18Z</time>
      </trkpt>
      <trkpt lat="45.84819" lon="5.76999">
        <ele>227.732</ele>
        <time>2021-07-27T15:21:48Z</time>
      </trkpt>
      <trkpt lat="45.84884" lon="5.77522">
        <ele>229.66</ele>
        <time>2021-07-27T15:22:32Z</time>
      </trkpt>
      <trkpt lat="45.84806" lon="5.78075">
        <ele>230.245</ele>
        <time>2021-07-27T15:23:20Z</time>
      </trkpt>
      <trkpt lat="45.84812" lon="5.78137">
        <ele>240.981</ele>
        <time>2021-07-27T15:23:37Z</time>
      </trkpt>
      <trkpt lat="45.84772" lon="5.78492">
        <ele>241.89</ele>
        <time>2021-07-27T15:24:19Z</time>
      </trkpt>
      <trkpt lat="45.84773" lon="5.78604">
        <ele>233.881</ele>
        <time>2021-07-27T15:24:27Z</time>
      </trkpt>
      <trkpt lat="45.84891" lon="5.79234">
        <ele>221.579</ele>
        <time>2021-07-27T15:25:30Z</time>
      </trkpt>
      <trkpt lat="45.85057" lon="5.79367">
        <ele>223.405</ele>
        <time>2021-07-27T15:25:44Z</time>
      </trkpt>
      <trkpt lat="45.85099" lon="5.79416">
        <ele>223.625</ele>
        <time>2021-07-27T15:25:50Z</time>
      </trkpt>
      <trkpt lat="45.85107" lon="5.79448">
        <ele>221.708</ele>
        <time>2021-07-27T15:25:53Z</time>
      </trkpt>
      <trkpt lat="45.85001" lon="5.79711">
        <ele>224.584</ele>
        <time>2021-07-27T15:26:14Z</time>
      </trkpt>
      <trkpt lat="45.8496" lon="5.79777">
        <ele>222.886</ele>
        <time>2021-07-27T15:26:22Z</time>
      </trkpt>
      <trkpt lat="45.84909" lon="5.79783">
        <ele>211.26</ele>
        <time>2021-07-27T15:27:21Z</time>
      </trkpt>
      <trkpt lat="45.84676" lon="5.79694">
        <ele>161.238</ele>
        <time>2021-07-27T15:27:46Z</time>
      </trkpt>
      <trkpt lat="45.84915" lon="5.7979">
        <ele>161.083</ele>
        <time>2021-07-27T15:28:06Z</time>
      </trkpt>
      <trkpt lat="45.84942" lon="5.79855">
        <ele>185.079</ele>
        <time>2021-07-27T15:28:13Z</time>
      </trkpt>
      <trkpt lat="45.84847" lon="5.80712">
        <ele>228.828</ele>
        <time>2021-07-27T15:28:51Z</time>
      </trkpt>
      <trkpt lat="45.84503" lon="5.80849">
        <ele>230.969</ele>
        <time>2021-07-27T15:29:13Z</time>
      </trkpt>
      <trkpt lat="45.84337" lon="5.80959">
        <ele>227.271</ele>
        <time>2021-07-27T15:29:22Z</time>
      </trkpt>
      <trkpt lat="45.84216" lon="5.80975">
        <ele>231.141</ele>
        <time>2021-07-27T15:29:28Z</time>
      </trkpt>
      <trkpt lat="45.8397" lon="5.80963">
        <ele>229.115</ele>
        <time>2021-07-27T15:29:39Z</time>
      </trkpt>
      <trkpt lat="45.8379" lon="5.81042">
        <ele>222.108</ele>
        <time>2021-07-27T15:29:47Z</time>
      </trkpt>
      <trkpt lat="45.83618" lon="5.8105">
        <ele>218.694</ele>
        <time>2021-07-27T15:29:56Z</time>
      </trkpt>
      <trkpt lat="45.83361" lon="5.81191">
        <ele>223.856</ele>
        <time>2021-07-27T15:30:14Z</time>
      </trkpt>
      <trkpt lat="45.83195" lon="5.81232">
        <ele>223.14</ele>
        <time>2021-07-27T15:30:22Z</time>
      </trkpt>
      <trkpt lat="45.83076" lon="5.81208">
        <ele>220.198</ele>
        <time>2021-07-27T15:30:28Z</time>
      </trkpt>
      <trkpt lat="45.82797" lon="5.81208">
        <ele>222.673</ele>
        <time>2021-07-27T15:30:43Z</time>
      </trkpt>
      <trkpt lat="45.82715" lon="5.81152">
        <ele>226.959</ele>
        <time>2021-07-27T15:30:48Z</time>
      </trkpt>
      <trkpt lat="45.82613" lon="5.81013">
        <ele>227.138</ele>
        <time>2021-07-27T15:30:56Z</time>
      </trkpt>
      <trkpt lat="45.82483" lon="5.80939">
        <ele>222.779</ele>
        <time>2021-07-27T15:31:05Z</time>
      </trkpt>
      <trkpt lat="45.82461" lon="5.80871">
        <ele>222.098</ele>
        <time>2021-07-27T15:31:09Z</time>
      </trkpt>
      <trkpt lat="45.82465" lon="5.80695">
        <ele>222.915</ele>
        <time>2021-07-27T15:31:19Z</time>
      </trkpt>
      <trkpt lat="45.82403" lon="5.80619">
        <ele>213.726</ele>
        <time>2021-07-27T15:31:27Z</time>
      </trkpt>
      <trkpt lat="45.82287" lon="5.80531">
        <ele>217.908</ele>
        <time>2021-07-27T15:31:36Z</time>
      </trkpt>
      <trkpt lat="45.82245" lon="5.80469">
        <ele>225.996</ele>
        <time>2021-07-27T15:31:40Z</time>
      </trkpt>
      <trkpt lat="45.82164" lon="5.80283">
        <ele>221.088</ele>
        <time>2021-07-27T15:31:49Z</time>
      </trkpt>
      <trkpt lat="45.82108" lon="5.80214">
        <ele>214.322</ele>
        <time>2021-07-27T15:31:53Z</time>
      </trkpt>
      <trkpt lat="45.81981" lon="5.80138">
        <ele>216.51</ele>
        <time>2021-07-27T15:32:00Z</time>
      </trkpt>
      <trkpt lat="45.8175" lon="5.799">
        <ele>219.655</ele>
        <time>2021-07-27T15:32:14Z</time>
      </trkpt>
      <trkpt lat="45.81219" lon="5.79534">
        <ele>214.641</ele>
        <time>2021-07-27T15:32:43Z</time>
      </trkpt>
      <trkpt lat="45.8113" lon="5.79491">
        <ele>227.16</ele>
        <time>2021-07-27T15:32:50Z</time>
      </trkpt>
      <trkpt lat="45.81045" lon="5.79507">
        <ele>225.641</ele>
        <time>2021-07-27T15:32:58Z</time>
      </trkpt>
      <trkpt lat="45.81019" lon="5.79475">
        <ele>230.113</ele>
        <time>2021-07-27T15:33:05Z</time>
      </trkpt>
      <trkpt lat="45.80957" lon="5.79452">
        <ele>232.943</ele>
        <time>2021-07-27T15:33:15Z</time>
      </trkpt>
      <trkpt lat="45.80907" lon="5.79409">
        <ele>224.407</ele>
        <time>2021-07-27T15:33:23Z</time>
      </trkpt>
      <trkpt lat="45.80909" lon="5.79271">
        <ele>230.408</ele>
        <time>2021-07-27T15:33:38Z</time>
      </trkpt>
      <trkpt lat="45.80877" lon="5.79117">
        <ele>225.258</ele>
        <time>2021-07-27T15:34:07Z</time>
      </trkpt>
      <trkpt lat="45.80924" lon="5.7891">
        <ele>227.15</ele>
        <time>2021-07-27T15:35:04Z</time>
      </trkpt>
      <trkpt lat="45.80876" lon="5.79118">
        <ele>226.744</ele>
        <time>2021-07-27T15:35:58Z</time>
      </trkpt>
      <trkpt lat="45.809" lon="5.79216">
        <ele>237.722</ele>
        <time>2021-07-27T15:36:27Z</time>
      </trkpt>
    </trkseg>
  </trk>
</gpx>